sensor_id;sensor_type;location;lat;lon;timestamp;P1;durP1;ratioP1;P2;durP2;ratioP2
69188;SDS011;56302;52.322;5.926;2023-04-25T00:01:35;7.13;;;1.77;;
69188;SDS011;56302;52.322;5.926;2023-04-25T00:04:01;7.95;;;1.70;;
69188;SDS011;56302;52.322;5.926;2023-04-25T00:06:27;7.88;;;1.80;;
69188;SDS011;56302;52.322;5.926;2023-04-25T00:08:54;9.73;;;1.90;;
69188;SDS011;56302;52.322;5.926;2023-04-25T00:11:21;5.38;;;1.90;;
69188;SDS011;56302;52.322;5.926;2023-04-25T00:13:47;7.57;;;1.92;;
69188;SDS011;56302;52.322;5.926;2023-04-25T00:16:14;8.43;;;2.00;;
69188;SDS011;56302;52.322;5.926;2023-04-25T00:18:41;5.40;;;1.70;;
69188;SDS011;56302;52.322;5.926;2023-04-25T00:21:07;8.15;;;2.13;;
69188;SDS011;56302;52.322;5.926;2023-04-25T00:23:33;9.45;;;1.85;;
69188;SDS011;56302;52.322;5.926;2023-04-25T00:26:01;10.00;;;1.90;;
69188;SDS011;56302;52.322;5.926;2023-04-25T00:28:26;7.37;;;2.20;;
69188;SDS011;56302;52.322;5.926;2023-04-25T00:30:52;7.70;;;2.15;;
69188;SDS011;56302;52.322;5.926;2023-04-25T00:33:18;9.27;;;2.00;;
69188;SDS011;56302;52.322;5.926;2023-04-25T00:35:43;12.70;;;2.43;;
69188;SDS011;56302;52.322;5.926;2023-04-25T00:38:09;12.52;;;2.53;;
69188;SDS011;56302;52.322;5.926;2023-04-25T00:40:34;14.10;;;3.10;;
69188;SDS011;56302;52.322;5.926;2023-04-25T00:43:00;15.33;;;2.43;;
69188;SDS011;56302;52.322;5.926;2023-04-25T00:45:28;13.70;;;2.75;;
69188;SDS011;56302;52.322;5.926;2023-04-25T00:47:54;19.30;;;2.60;;
69188;SDS011;56302;52.322;5.926;2023-04-25T00:50:20;10.80;;;2.45;;
69188;SDS011;56302;52.322;5.926;2023-04-25T00:52:46;17.58;;;2.90;;
69188;SDS011;56302;52.322;5.926;2023-04-25T00:55:12;15.97;;;3.00;;
69188;SDS011;56302;52.322;5.926;2023-04-25T00:57:38;11.75;;;3.20;;
69188;SDS011;56302;52.322;5.926;2023-04-25T01:00:04;13.60;;;2.90;;
69188;SDS011;56302;52.322;5.926;2023-04-25T01:02:32;14.82;;;2.85;;
69188;SDS011;56302;52.322;5.926;2023-04-25T01:04:58;11.55;;;2.30;;
69188;SDS011;56302;52.322;5.926;2023-04-25T01:07:24;12.57;;;2.40;;
69188;SDS011;56302;52.322;5.926;2023-04-25T01:09:51;9.77;;;1.92;;
69188;SDS011;56302;52.322;5.926;2023-04-25T01:12:17;12.75;;;2.35;;
69188;SDS011;56302;52.322;5.926;2023-04-25T01:14:43;9.20;;;2.35;;
69188;SDS011;56302;52.322;5.926;2023-04-25T01:17:09;12.82;;;2.50;;
69188;SDS011;56302;52.322;5.926;2023-04-25T01:19:35;10.40;;;2.90;;
69188;SDS011;56302;52.322;5.926;2023-04-25T01:22:01;10.77;;;2.10;;
69188;SDS011;56302;52.322;5.926;2023-04-25T01:24:27;14.00;;;2.20;;
69188;SDS011;56302;52.322;5.926;2023-04-25T01:26:53;10.48;;;2.33;;
69188;SDS011;56302;52.322;5.926;2023-04-25T01:29:21;10.32;;;1.88;;
69188;SDS011;56302;52.322;5.926;2023-04-25T01:31:48;9.87;;;2.13;;
69188;SDS011;56302;52.322;5.926;2023-04-25T01:34:14;12.23;;;2.55;;
69188;SDS011;56302;52.322;5.926;2023-04-25T01:36:40;8.13;;;2.50;;
69188;SDS011;56302;52.322;5.926;2023-04-25T01:39:06;18.33;;;2.70;;
69188;SDS011;56302;52.322;5.926;2023-04-25T01:41:31;9.65;;;2.38;;
69188;SDS011;56302;52.322;5.926;2023-04-25T01:43:59;13.53;;;2.50;;
69188;SDS011;56302;52.322;5.926;2023-04-25T01:46:25;8.95;;;2.40;;
69188;SDS011;56302;52.322;5.926;2023-04-25T01:48:52;13.60;;;2.55;;
69188;SDS011;56302;52.322;5.926;2023-04-25T01:51:17;10.50;;;2.17;;
69188;SDS011;56302;52.322;5.926;2023-04-25T01:53:43;11.43;;;2.60;;
69188;SDS011;56302;52.322;5.926;2023-04-25T01:56:09;11.93;;;2.20;;
69188;SDS011;56302;52.322;5.926;2023-04-25T01:58:35;12.13;;;2.17;;
69188;SDS011;56302;52.322;5.926;2023-04-25T02:01:00;12.50;;;2.17;;
69188;SDS011;56302;52.322;5.926;2023-04-25T02:03:26;11.10;;;2.55;;
69188;SDS011;56302;52.322;5.926;2023-04-25T02:05:51;9.40;;;1.97;;
69188;SDS011;56302;52.322;5.926;2023-04-25T02:08:17;13.30;;;2.00;;
69188;SDS011;56302;52.322;5.926;2023-04-25T02:10:43;14.82;;;2.55;;
69188;SDS011;56302;52.322;5.926;2023-04-25T02:13:09;13.07;;;2.75;;
69188;SDS011;56302;52.322;5.926;2023-04-25T02:15:34;11.30;;;2.57;;
69188;SDS011;56302;52.322;5.926;2023-04-25T02:18:00;9.52;;;2.33;;
69188;SDS011;56302;52.322;5.926;2023-04-25T02:20:27;8.98;;;2.40;;
69188;SDS011;56302;52.322;5.926;2023-04-25T02:22:53;7.63;;;1.88;;
69188;SDS011;56302;52.322;5.926;2023-04-25T02:25:19;9.07;;;1.98;;
69188;SDS011;56302;52.322;5.926;2023-04-25T02:27:45;13.37;;;3.07;;
69188;SDS011;56302;52.322;5.926;2023-04-25T02:30:12;7.88;;;2.00;;
69188;SDS011;56302;52.322;5.926;2023-04-25T02:32:38;11.88;;;2.45;;
69188;SDS011;56302;52.322;5.926;2023-04-25T02:35:04;7.93;;;2.00;;
69188;SDS011;56302;52.322;5.926;2023-04-25T02:37:31;8.45;;;2.00;;
69188;SDS011;56302;52.322;5.926;2023-04-25T02:40:01;9.85;;;2.08;;
69188;SDS011;56302;52.322;5.926;2023-04-25T02:42:28;8.35;;;1.80;;
69188;SDS011;56302;52.322;5.926;2023-04-25T02:44:53;12.30;;;2.00;;
69188;SDS011;56302;52.322;5.926;2023-04-25T02:47:19;8.40;;;1.85;;
69188;SDS011;56302;52.322;5.926;2023-04-25T02:49:44;11.67;;;2.00;;
69188;SDS011;56302;52.322;5.926;2023-04-25T02:52:11;10.70;;;2.40;;
69188;SDS011;56302;52.322;5.926;2023-04-25T02:54:37;8.95;;;2.17;;
69188;SDS011;56302;52.322;5.926;2023-04-25T02:57:03;13.47;;;2.30;;
69188;SDS011;56302;52.322;5.926;2023-04-25T02:59:29;11.02;;;2.40;;
69188;SDS011;56302;52.322;5.926;2023-04-25T03:01:54;8.57;;;2.43;;
69188;SDS011;56302;52.322;5.926;2023-04-25T03:04:20;8.80;;;1.95;;
69188;SDS011;56302;52.322;5.926;2023-04-25T03:06:48;8.73;;;2.05;;
69188;SDS011;56302;52.322;5.926;2023-04-25T03:09:14;11.88;;;2.65;;
69188;SDS011;56302;52.322;5.926;2023-04-25T03:11:40;10.47;;;2.43;;
69188;SDS011;56302;52.322;5.926;2023-04-25T03:14:05;10.23;;;1.98;;
69188;SDS011;56302;52.322;5.926;2023-04-25T03:16:31;6.80;;;1.90;;
69188;SDS011;56302;52.322;5.926;2023-04-25T03:18:56;12.13;;;2.60;;
69188;SDS011;56302;52.322;5.926;2023-04-25T03:21:22;9.25;;;2.45;;
69188;SDS011;56302;52.322;5.926;2023-04-25T03:23:48;9.13;;;1.77;;
69188;SDS011;56302;52.322;5.926;2023-04-25T03:26:13;13.57;;;2.25;;
69188;SDS011;56302;52.322;5.926;2023-04-25T03:28:39;12.73;;;2.50;;
69188;SDS011;56302;52.322;5.926;2023-04-25T03:31:05;14.40;;;2.95;;
69188;SDS011;56302;52.322;5.926;2023-04-25T03:33:30;10.05;;;2.60;;
69188;SDS011;56302;52.322;5.926;2023-04-25T03:35:56;12.07;;;2.20;;
69188;SDS011;56302;52.322;5.926;2023-04-25T03:38:22;10.05;;;2.33;;
69188;SDS011;56302;52.322;5.926;2023-04-25T03:40:48;16.30;;;2.40;;
69188;SDS011;56302;52.322;5.926;2023-04-25T03:43:13;10.25;;;2.33;;
69188;SDS011;56302;52.322;5.926;2023-04-25T03:45:39;12.27;;;2.50;;
69188;SDS011;56302;52.322;5.926;2023-04-25T03:48:04;11.53;;;2.90;;
69188;SDS011;56302;52.322;5.926;2023-04-25T03:50:30;11.10;;;2.03;;
69188;SDS011;56302;52.322;5.926;2023-04-25T03:52:55;7.67;;;2.00;;
69188;SDS011;56302;52.322;5.926;2023-04-25T03:55:21;9.73;;;2.50;;
69188;SDS011;56302;52.322;5.926;2023-04-25T03:57:46;7.35;;;2.10;;
69188;SDS011;56302;52.322;5.926;2023-04-25T04:00:12;10.53;;;2.20;;
69188;SDS011;56302;52.322;5.926;2023-04-25T04:02:38;12.32;;;2.20;;
69188;SDS011;56302;52.322;5.926;2023-04-25T04:05:04;9.20;;;2.23;;
69188;SDS011;56302;52.322;5.926;2023-04-25T04:07:30;10.52;;;2.10;;
69188;SDS011;56302;52.322;5.926;2023-04-25T04:09:57;7.38;;;2.13;;
69188;SDS011;56302;52.322;5.926;2023-04-25T04:12:23;11.07;;;2.00;;
69188;SDS011;56302;52.322;5.926;2023-04-25T04:14:49;10.10;;;1.90;;
69188;SDS011;56302;52.322;5.926;2023-04-25T04:17:14;8.10;;;2.20;;
69188;SDS011;56302;52.322;5.926;2023-04-25T04:19:40;11.57;;;2.33;;
69188;SDS011;56302;52.322;5.926;2023-04-25T04:22:06;10.00;;;2.45;;
69188;SDS011;56302;52.322;5.926;2023-04-25T04:24:31;11.30;;;2.90;;
69188;SDS011;56302;52.322;5.926;2023-04-25T04:26:57;9.73;;;2.40;;
69188;SDS011;56302;52.322;5.926;2023-04-25T04:29:23;8.48;;;2.25;;
69188;SDS011;56302;52.322;5.926;2023-04-25T04:31:50;10.20;;;2.10;;
69188;SDS011;56302;52.322;5.926;2023-04-25T04:34:17;7.83;;;1.60;;
69188;SDS011;56302;52.322;5.926;2023-04-25T04:36:43;10.07;;;2.17;;
69188;SDS011;56302;52.322;5.926;2023-04-25T04:39:11;7.25;;;1.63;;
69188;SDS011;56302;52.322;5.926;2023-04-25T04:41:37;10.80;;;1.60;;
69188;SDS011;56302;52.322;5.926;2023-04-25T04:44:03;9.67;;;1.90;;
69188;SDS011;56302;52.322;5.926;2023-04-25T04:46:31;10.05;;;1.55;;
69188;SDS011;56302;52.322;5.926;2023-04-25T04:49:02;8.63;;;1.67;;
69188;SDS011;56302;52.322;5.926;2023-04-25T04:51:31;9.60;;;2.20;;
69188;SDS011;56302;52.322;5.926;2023-04-25T04:53:56;11.37;;;1.87;;
69188;SDS011;56302;52.322;5.926;2023-04-25T04:56:23;8.65;;;1.63;;
69188;SDS011;56302;52.322;5.926;2023-04-25T04:58:50;11.60;;;1.70;;
69188;SDS011;56302;52.322;5.926;2023-04-25T05:01:16;8.83;;;1.60;;
69188;SDS011;56302;52.322;5.926;2023-04-25T05:03:41;15.10;;;1.73;;
69188;SDS011;56302;52.322;5.926;2023-04-25T05:06:07;5.73;;;1.50;;
69188;SDS011;56302;52.322;5.926;2023-04-25T05:08:33;8.60;;;1.50;;
69188;SDS011;56302;52.322;5.926;2023-04-25T05:10:59;7.30;;;1.40;;
69188;SDS011;56302;52.322;5.926;2023-04-25T05:13:24;11.13;;;1.42;;
69188;SDS011;56302;52.322;5.926;2023-04-25T05:15:50;7.93;;;1.30;;
69188;SDS011;56302;52.322;5.926;2023-04-25T05:18:15;8.90;;;1.50;;
69188;SDS011;56302;52.322;5.926;2023-04-25T05:20:41;8.43;;;1.53;;
69188;SDS011;56302;52.322;5.926;2023-04-25T05:23:07;6.32;;;1.52;;
69188;SDS011;56302;52.322;5.926;2023-04-25T05:25:32;6.93;;;1.23;;
69188;SDS011;56302;52.322;5.926;2023-04-25T05:27:58;8.15;;;1.33;;
69188;SDS011;56302;52.322;5.926;2023-04-25T05:30:24;11.83;;;1.77;;
69188;SDS011;56302;52.322;5.926;2023-04-25T05:32:49;10.98;;;1.70;;
69188;SDS011;56302;52.322;5.926;2023-04-25T05:35:15;5.83;;;1.57;;
69188;SDS011;56302;52.322;5.926;2023-04-25T05:37:41;9.07;;;1.63;;
69188;SDS011;56302;52.322;5.926;2023-04-25T05:40:07;7.78;;;1.63;;
69188;SDS011;56302;52.322;5.926;2023-04-25T05:42:33;10.20;;;1.80;;
69188;SDS011;56302;52.322;5.926;2023-04-25T05:44:59;13.30;;;1.93;;
69188;SDS011;56302;52.322;5.926;2023-04-25T05:47:25;6.88;;;1.60;;
69188;SDS011;56302;52.322;5.926;2023-04-25T05:49:51;7.75;;;1.85;;
69188;SDS011;56302;52.322;5.926;2023-04-25T05:52:16;10.17;;;1.37;;
69188;SDS011;56302;52.322;5.926;2023-04-25T05:54:42;4.80;;;1.73;;
69188;SDS011;56302;52.322;5.926;2023-04-25T05:57:07;7.90;;;1.73;;
69188;SDS011;56302;52.322;5.926;2023-04-25T05:59:33;10.23;;;1.65;;
69188;SDS011;56302;52.322;5.926;2023-04-25T06:01:58;7.67;;;1.70;;
69188;SDS011;56302;52.322;5.926;2023-04-25T06:04:25;9.05;;;1.70;;
69188;SDS011;56302;52.322;5.926;2023-04-25T06:06:51;8.67;;;1.20;;
69188;SDS011;56302;52.322;5.926;2023-04-25T06:09:16;8.45;;;1.95;;
69188;SDS011;56302;52.322;5.926;2023-04-25T06:11:42;6.47;;;1.58;;
69188;SDS011;56302;52.322;5.926;2023-04-25T06:14:07;7.97;;;1.60;;
69188;SDS011;56302;52.322;5.926;2023-04-25T06:16:33;8.47;;;1.73;;
69188;SDS011;56302;52.322;5.926;2023-04-25T06:18:58;12.57;;;1.77;;
69188;SDS011;56302;52.322;5.926;2023-04-25T06:21:24;7.93;;;1.87;;
69188;SDS011;56302;52.322;5.926;2023-04-25T06:23:50;12.73;;;1.50;;
69188;SDS011;56302;52.322;5.926;2023-04-25T06:26:16;9.13;;;1.73;;
69188;SDS011;56302;52.322;5.926;2023-04-25T06:28:41;9.90;;;1.65;;
69188;SDS011;56302;52.322;5.926;2023-04-25T06:31:07;11.80;;;1.30;;
69188;SDS011;56302;52.322;5.926;2023-04-25T06:33:32;9.07;;;1.87;;
69188;SDS011;56302;52.322;5.926;2023-04-25T06:35:58;11.93;;;1.40;;
69188;SDS011;56302;52.322;5.926;2023-04-25T06:38:23;9.63;;;1.40;;
69188;SDS011;56302;52.322;5.926;2023-04-25T06:40:49;10.40;;;1.67;;
69188;SDS011;56302;52.322;5.926;2023-04-25T06:43:14;8.37;;;1.40;;
69188;SDS011;56302;52.322;5.926;2023-04-25T06:45:40;8.55;;;1.48;;
69188;SDS011;56302;52.322;5.926;2023-04-25T06:48:05;9.07;;;1.53;;
69188;SDS011;56302;52.322;5.926;2023-04-25T06:50:31;8.60;;;1.63;;
69188;SDS011;56302;52.322;5.926;2023-04-25T06:52:56;9.82;;;1.63;;
69188;SDS011;56302;52.322;5.926;2023-04-25T06:55:22;13.07;;;1.80;;
69188;SDS011;56302;52.322;5.926;2023-04-25T06:57:47;7.77;;;1.50;;
69188;SDS011;56302;52.322;5.926;2023-04-25T07:00:13;17.10;;;1.87;;
69188;SDS011;56302;52.322;5.926;2023-04-25T07:02:39;13.95;;;2.30;;
69188;SDS011;56302;52.322;5.926;2023-04-25T07:05:07;10.65;;;1.83;;
69188;SDS011;56302;52.322;5.926;2023-04-25T07:07:32;13.23;;;1.80;;
69188;SDS011;56302;52.322;5.926;2023-04-25T07:09:58;10.10;;;1.43;;
69188;SDS011;56302;52.322;5.926;2023-04-25T07:12:23;11.00;;;1.90;;
69188;SDS011;56302;52.322;5.926;2023-04-25T07:14:49;11.98;;;2.30;;
69188;SDS011;56302;52.322;5.926;2023-04-25T07:17:15;6.35;;;1.52;;
69188;SDS011;56302;52.322;5.926;2023-04-25T07:19:40;10.77;;;1.60;;
69188;SDS011;56302;52.322;5.926;2023-04-25T07:22:06;9.85;;;1.55;;
69188;SDS011;56302;52.322;5.926;2023-04-25T07:24:32;6.80;;;1.40;;
69188;SDS011;56302;52.322;5.926;2023-04-25T07:26:58;9.17;;;1.47;;
69188;SDS011;56302;52.322;5.926;2023-04-25T07:29:23;6.10;;;1.43;;
69188;SDS011;56302;52.322;5.926;2023-04-25T07:31:49;7.35;;;0.90;;
69188;SDS011;56302;52.322;5.926;2023-04-25T07:34:15;10.27;;;1.17;;
69188;SDS011;56302;52.322;5.926;2023-04-25T07:36:40;3.30;;;0.68;;
69188;SDS011;56302;52.322;5.926;2023-04-25T07:39:06;4.13;;;0.90;;
69188;SDS011;56302;52.322;5.926;2023-04-25T07:41:33;3.75;;;0.73;;
69188;SDS011;56302;52.322;5.926;2023-04-25T07:43:59;6.07;;;1.00;;
69188;SDS011;56302;52.322;5.926;2023-04-25T07:46:25;3.30;;;0.70;;
69188;SDS011;56302;52.322;5.926;2023-04-25T07:48:50;3.47;;;0.80;;
69188;SDS011;56302;52.322;5.926;2023-04-25T07:51:16;5.25;;;1.00;;
69188;SDS011;56302;52.322;5.926;2023-04-25T07:53:44;6.30;;;1.20;;
69188;SDS011;56302;52.322;5.926;2023-04-25T07:56:10;6.97;;;1.00;;
69188;SDS011;56302;52.322;5.926;2023-04-25T07:58:35;6.00;;;1.00;;
69188;SDS011;56302;52.322;5.926;2023-04-25T08:01:01;3.13;;;1.00;;
69188;SDS011;56302;52.322;5.926;2023-04-25T08:03:27;5.57;;;0.70;;
69188;SDS011;56302;52.322;5.926;2023-04-25T08:05:52;4.17;;;0.80;;
69188;SDS011;56302;52.322;5.926;2023-04-25T08:08:18;3.70;;;1.00;;
69188;SDS011;56302;52.322;5.926;2023-04-25T08:10:43;6.60;;;1.40;;
69188;SDS011;56302;52.322;5.926;2023-04-25T08:13:09;6.57;;;1.10;;
69188;SDS011;56302;52.322;5.926;2023-04-25T08:15:34;5.55;;;0.80;;
69188;SDS011;56302;52.322;5.926;2023-04-25T08:18:00;6.67;;;0.97;;
69188;SDS011;56302;52.322;5.926;2023-04-25T08:20:25;6.57;;;1.20;;
69188;SDS011;56302;52.322;5.926;2023-04-25T08:22:51;4.78;;;1.00;;
69188;SDS011;56302;52.322;5.926;2023-04-25T08:25:17;9.20;;;1.23;;
69188;SDS011;56302;52.322;5.926;2023-04-25T08:27:42;4.03;;;0.98;;
69188;SDS011;56302;52.322;5.926;2023-04-25T08:30:08;8.43;;;1.10;;
69188;SDS011;56302;52.322;5.926;2023-04-25T08:32:34;5.10;;;1.20;;
69188;SDS011;56302;52.322;5.926;2023-04-25T08:34:59;7.17;;;1.20;;
69188;SDS011;56302;52.322;5.926;2023-04-25T08:37:25;9.07;;;1.70;;
69188;SDS011;56302;52.322;5.926;2023-04-25T08:39:50;7.60;;;1.20;;
69188;SDS011;56302;52.322;5.926;2023-04-25T08:42:21;6.63;;;1.33;;
69188;SDS011;56302;52.322;5.926;2023-04-25T08:44:47;6.55;;;1.15;;
69188;SDS011;56302;52.322;5.926;2023-04-25T08:47:14;13.45;;;1.10;;
69188;SDS011;56302;52.322;5.926;2023-04-25T08:49:39;4.78;;;1.13;;
69188;SDS011;56302;52.322;5.926;2023-04-25T08:52:11;5.73;;;1.00;;
69188;SDS011;56302;52.322;5.926;2023-04-25T08:54:40;3.60;;;0.70;;
69188;SDS011;56302;52.322;5.926;2023-04-25T08:57:09;3.63;;;0.85;;
69188;SDS011;56302;52.322;5.926;2023-04-25T08:59:34;3.80;;;0.70;;
69188;SDS011;56302;52.322;5.926;2023-04-25T09:02:02;3.40;;;0.80;;
69188;SDS011;56302;52.322;5.926;2023-04-25T09:04:29;5.03;;;0.80;;
69188;SDS011;56302;52.322;5.926;2023-04-25T09:06:56;4.18;;;0.70;;
69188;SDS011;56302;52.322;5.926;2023-04-25T09:09:21;4.00;;;0.68;;
69188;SDS011;56302;52.322;5.926;2023-04-25T09:11:48;5.90;;;0.98;;
69188;SDS011;56302;52.322;5.926;2023-04-25T09:14:21;6.20;;;1.20;;
69188;SDS011;56302;52.322;5.926;2023-04-25T09:16:57;5.50;;;0.70;;
69188;SDS011;56302;52.322;5.926;2023-04-25T09:19:26;3.97;;;0.80;;
69188;SDS011;56302;52.322;5.926;2023-04-25T09:21:56;8.73;;;1.13;;
69188;SDS011;56302;52.322;5.926;2023-04-25T09:24:32;4.35;;;1.20;;
69188;SDS011;56302;52.322;5.926;2023-04-25T09:27:03;7.15;;;1.45;;
69188;SDS011;56302;52.322;5.926;2023-04-25T09:29:39;5.22;;;1.10;;
69188;SDS011;56302;52.322;5.926;2023-04-25T09:32:10;10.50;;;1.30;;
69188;SDS011;56302;52.322;5.926;2023-04-25T09:34:41;6.88;;;1.05;;
69188;SDS011;56302;52.322;5.926;2023-04-25T09:37:09;5.97;;;0.90;;
69188;SDS011;56302;52.322;5.926;2023-04-25T09:39:36;7.78;;;1.17;;
69188;SDS011;56302;52.322;5.926;2023-04-25T09:42:03;12.15;;;1.75;;
69188;SDS011;56302;52.322;5.926;2023-04-25T09:44:31;8.77;;;1.57;;
69188;SDS011;56302;52.322;5.926;2023-04-25T09:46:57;8.35;;;1.10;;
69188;SDS011;56302;52.322;5.926;2023-04-25T09:49:24;7.22;;;1.00;;
69188;SDS011;56302;52.322;5.926;2023-04-25T09:51:54;6.87;;;1.07;;
69188;SDS011;56302;52.322;5.926;2023-04-25T09:54:23;9.27;;;1.20;;
69188;SDS011;56302;52.322;5.926;2023-04-25T09:56:50;7.00;;;0.95;;
69188;SDS011;56302;52.322;5.926;2023-04-25T09:59:21;7.70;;;1.20;;
69188;SDS011;56302;52.322;5.926;2023-04-25T10:01:48;10.55;;;1.30;;
69188;SDS011;56302;52.322;5.926;2023-04-25T10:04:17;6.27;;;1.10;;
69188;SDS011;56302;52.322;5.926;2023-04-25T10:06:48;6.95;;;1.30;;
69188;SDS011;56302;52.322;5.926;2023-04-25T10:09:15;7.25;;;1.10;;
69188;SDS011;56302;52.322;5.926;2023-04-25T10:11:42;6.30;;;1.10;;
69188;SDS011;56302;52.322;5.926;2023-04-25T10:14:10;8.30;;;1.13;;
69188;SDS011;56302;52.322;5.926;2023-04-25T10:16:37;7.20;;;1.07;;
69188;SDS011;56302;52.322;5.926;2023-04-25T10:19:04;7.75;;;0.90;;
69188;SDS011;56302;52.322;5.926;2023-04-25T10:21:30;6.32;;;0.80;;
69188;SDS011;56302;52.322;5.926;2023-04-25T10:23:57;8.00;;;1.10;;
69188;SDS011;56302;52.322;5.926;2023-04-25T10:26:23;6.22;;;1.05;;
69188;SDS011;56302;52.322;5.926;2023-04-25T10:29:02;11.70;;;1.17;;
69188;SDS011;56302;52.322;5.926;2023-04-25T10:31:29;8.40;;;1.00;;
69188;SDS011;56302;52.322;5.926;2023-04-25T10:33:55;5.60;;;1.13;;
69188;SDS011;56302;52.322;5.926;2023-04-25T10:36:21;5.15;;;0.98;;
69188;SDS011;56302;52.322;5.926;2023-04-25T10:38:48;5.70;;;1.27;;
69188;SDS011;56302;52.322;5.926;2023-04-25T10:41:18;5.30;;;0.80;;
69188;SDS011;56302;52.322;5.926;2023-04-25T10:43:45;5.07;;;1.13;;
69188;SDS011;56302;52.322;5.926;2023-04-25T10:46:22;6.40;;;1.38;;
69188;SDS011;56302;52.322;5.926;2023-04-25T10:48:49;4.17;;;1.00;;
69188;SDS011;56302;52.322;5.926;2023-04-25T10:51:23;7.68;;;1.00;;
69188;SDS011;56302;52.322;5.926;2023-04-25T10:53:57;5.13;;;0.93;;
69188;SDS011;56302;52.322;5.926;2023-04-25T10:56:28;3.90;;;0.77;;
69188;SDS011;56302;52.322;5.926;2023-04-25T10:59:05;5.80;;;1.02;;
69188;SDS011;56302;52.322;5.926;2023-04-25T11:01:42;6.82;;;0.98;;
69188;SDS011;56302;52.322;5.926;2023-04-25T11:04:19;4.38;;;0.77;;
69188;SDS011;56302;52.322;5.926;2023-04-25T11:06:59;5.10;;;0.75;;
69188;SDS011;56302;52.322;5.926;2023-04-25T11:09:44;7.30;;;1.35;;
69188;SDS011;56302;52.322;5.926;2023-04-25T11:12:10;8.15;;;0.90;;
69188;SDS011;56302;52.322;5.926;2023-04-25T11:14:39;4.18;;;0.88;;
69188;SDS011;56302;52.322;5.926;2023-04-25T11:17:05;3.20;;;0.80;;
69188;SDS011;56302;52.322;5.926;2023-04-25T11:19:31;6.75;;;0.85;;
69188;SDS011;56302;52.322;5.926;2023-04-25T11:21:57;6.25;;;1.08;;
69188;SDS011;56302;52.322;5.926;2023-04-25T11:24:28;6.80;;;1.00;;
69188;SDS011;56302;52.322;5.926;2023-04-25T11:26:55;5.82;;;0.93;;
69188;SDS011;56302;52.322;5.926;2023-04-25T11:29:23;7.57;;;1.10;;
69188;SDS011;56302;52.322;5.926;2023-04-25T11:31:52;5.05;;;0.77;;
69188;SDS011;56302;52.322;5.926;2023-04-25T11:34:18;7.63;;;1.20;;
69188;SDS011;56302;52.322;5.926;2023-04-25T11:36:45;5.47;;;0.82;;
69188;SDS011;56302;52.322;5.926;2023-04-25T11:39:11;9.65;;;1.17;;
69188;SDS011;56302;52.322;5.926;2023-04-25T11:41:37;8.68;;;1.27;;
69188;SDS011;56302;52.322;5.926;2023-04-25T11:44:03;4.27;;;1.33;;
69188;SDS011;56302;52.322;5.926;2023-04-25T11:46:29;6.25;;;0.90;;
69188;SDS011;56302;52.322;5.926;2023-04-25T11:48:55;8.50;;;1.20;;
69188;SDS011;56302;52.322;5.926;2023-04-25T11:51:22;5.53;;;0.88;;
69188;SDS011;56302;52.322;5.926;2023-04-25T11:53:47;4.80;;;1.00;;
69188;SDS011;56302;52.322;5.926;2023-04-25T11:56:13;3.63;;;0.90;;
69188;SDS011;56302;52.322;5.926;2023-04-25T12:01:29;3.53;;;0.70;;
69188;SDS011;56302;52.322;5.926;2023-04-25T12:06:40;6.63;;;1.13;;
69188;SDS011;56302;52.322;5.926;2023-04-25T12:09:09;4.50;;;0.80;;
69188;SDS011;56302;52.322;5.926;2023-04-25T12:11:46;3.92;;;0.70;;
69188;SDS011;56302;52.322;5.926;2023-04-25T12:14:22;5.55;;;1.10;;
69188;SDS011;56302;52.322;5.926;2023-04-25T12:16:52;3.23;;;0.80;;
69188;SDS011;56302;52.322;5.926;2023-04-25T12:19:21;5.07;;;0.75;;
69188;SDS011;56302;52.322;5.926;2023-04-25T12:21:47;6.25;;;0.80;;
69188;SDS011;56302;52.322;5.926;2023-04-25T12:26:45;6.07;;;0.87;;
69188;SDS011;56302;52.322;5.926;2023-04-25T12:29:28;4.82;;;1.10;;
69188;SDS011;56302;52.322;5.926;2023-04-25T12:31:55;6.70;;;1.10;;
69188;SDS011;56302;52.322;5.926;2023-04-25T12:34:22;6.57;;;1.00;;
69188;SDS011;56302;52.322;5.926;2023-04-25T12:36:48;4.35;;;1.02;;
69188;SDS011;56302;52.322;5.926;2023-04-25T12:39:18;4.10;;;0.83;;
69188;SDS011;56302;52.322;5.926;2023-04-25T12:41:49;6.90;;;1.40;;
69188;SDS011;56302;52.322;5.926;2023-04-25T12:44:15;4.90;;;0.90;;
69188;SDS011;56302;52.322;5.926;2023-04-25T12:46:41;7.47;;;1.00;;
69188;SDS011;56302;52.322;5.926;2023-04-25T12:49:07;6.15;;;0.90;;
69188;SDS011;56302;52.322;5.926;2023-04-25T12:51:33;5.80;;;0.82;;
69188;SDS011;56302;52.322;5.926;2023-04-25T12:53:59;5.60;;;1.17;;
69188;SDS011;56302;52.322;5.926;2023-04-25T12:56:26;7.57;;;0.90;;
69188;SDS011;56302;52.322;5.926;2023-04-25T12:58:54;7.25;;;0.82;;
69188;SDS011;56302;52.322;5.926;2023-04-25T13:01:20;4.55;;;0.80;;
69188;SDS011;56302;52.322;5.926;2023-04-25T13:03:46;5.50;;;1.00;;
69188;SDS011;56302;52.322;5.926;2023-04-25T13:06:13;8.77;;;1.05;;
69188;SDS011;56302;52.322;5.926;2023-04-25T13:08:39;8.83;;;0.83;;
69188;SDS011;56302;52.322;5.926;2023-04-25T13:11:06;4.45;;;1.10;;
69188;SDS011;56302;52.322;5.926;2023-04-25T13:13:31;7.80;;;1.10;;
69188;SDS011;56302;52.322;5.926;2023-04-25T13:15:59;9.00;;;1.20;;
69188;SDS011;56302;52.322;5.926;2023-04-25T13:18:28;4.10;;;0.75;;
69188;SDS011;56302;52.322;5.926;2023-04-25T13:20:55;5.95;;;1.05;;
69188;SDS011;56302;52.322;5.926;2023-04-25T13:23:21;4.70;;;1.30;;
69188;SDS011;56302;52.322;5.926;2023-04-25T13:25:47;5.70;;;0.93;;
69188;SDS011;56302;52.322;5.926;2023-04-25T13:28:13;4.30;;;1.20;;
69188;SDS011;56302;52.322;5.926;2023-04-25T13:30:39;7.28;;;1.15;;
69188;SDS011;56302;52.322;5.926;2023-04-25T13:33:05;7.65;;;1.00;;
69188;SDS011;56302;52.322;5.926;2023-04-25T13:35:31;7.33;;;1.00;;
69188;SDS011;56302;52.322;5.926;2023-04-25T13:37:58;4.72;;;1.00;;
69188;SDS011;56302;52.322;5.926;2023-04-25T13:40:24;5.55;;;1.23;;
69188;SDS011;56302;52.322;5.926;2023-04-25T13:42:49;7.13;;;1.13;;
69188;SDS011;56302;52.322;5.926;2023-04-25T13:45:15;5.95;;;1.17;;
69188;SDS011;56302;52.322;5.926;2023-04-25T13:47:41;4.53;;;1.00;;
69188;SDS011;56302;52.322;5.926;2023-04-25T13:50:07;6.75;;;1.20;;
69188;SDS011;56302;52.322;5.926;2023-04-25T13:52:33;5.75;;;0.90;;
69188;SDS011;56302;52.322;5.926;2023-04-25T13:54:59;5.88;;;0.90;;
69188;SDS011;56302;52.322;5.926;2023-04-25T13:57:25;7.38;;;1.30;;
69188;SDS011;56302;52.322;5.926;2023-04-25T13:59:51;5.73;;;1.17;;
69188;SDS011;56302;52.322;5.926;2023-04-25T14:02:17;8.82;;;1.20;;
69188;SDS011;56302;52.322;5.926;2023-04-25T14:04:43;5.97;;;1.30;;
69188;SDS011;56302;52.322;5.926;2023-04-25T14:07:08;3.60;;;0.80;;
69188;SDS011;56302;52.322;5.926;2023-04-25T14:09:35;6.20;;;1.17;;
69188;SDS011;56302;52.322;5.926;2023-04-25T14:12:01;7.68;;;0.90;;
69188;SDS011;56302;52.322;5.926;2023-04-25T14:14:27;6.10;;;0.87;;
69188;SDS011;56302;52.322;5.926;2023-04-25T14:16:53;4.95;;;1.13;;
69188;SDS011;56302;52.322;5.926;2023-04-25T14:19:19;4.87;;;0.80;;
69188;SDS011;56302;52.322;5.926;2023-04-25T14:21:45;8.65;;;1.08;;
69188;SDS011;56302;52.322;5.926;2023-04-25T14:24:11;6.78;;;1.30;;
69188;SDS011;56302;52.322;5.926;2023-04-25T14:26:37;5.87;;;1.00;;
69188;SDS011;56302;52.322;5.926;2023-04-25T14:29:03;6.95;;;0.95;;
69188;SDS011;56302;52.322;5.926;2023-04-25T14:31:30;7.72;;;1.33;;
69188;SDS011;56302;52.322;5.926;2023-04-25T14:33:56;11.70;;;1.30;;
69188;SDS011;56302;52.322;5.926;2023-04-25T14:36:21;5.97;;;0.95;;
69188;SDS011;56302;52.322;5.926;2023-04-25T14:38:47;4.10;;;1.10;;
69188;SDS011;56302;52.322;5.926;2023-04-25T14:41:13;8.87;;;0.90;;
69188;SDS011;56302;52.322;5.926;2023-04-25T14:43:38;4.57;;;1.20;;
69188;SDS011;56302;52.322;5.926;2023-04-25T14:46:05;5.30;;;1.10;;
69188;SDS011;56302;52.322;5.926;2023-04-25T14:48:31;4.82;;;1.17;;